sensor_id;sensor_type;location;lat;lon;timestamp;P1;durP1;ratioP1;P2;durP2;ratioP2
69172;SDS011;56280;49.662;8.408;2023-07-13T00:01:27;5.53;;;1.55;;
69172;SDS011;56280;49.662;8.408;2023-07-13T00:03:54;5.27;;;1.70;;
69172;SDS011;56280;49.662;8.408;2023-07-13T00:06:20;3.95;;;1.70;;
69172;SDS011;56280;49.662;8.408;2023-07-13T00:08:45;4.40;;;1.60;;
69172;SDS011;56280;49.662;8.408;2023-07-13T00:11:12;4.13;;;1.55;;
69172;SDS011;56280;49.662;8.408;2023-07-13T00:13:38;5.13;;;1.80;;
69172;SDS011;56280;49.662;8.408;2023-07-13T00:16:04;5.25;;;1.70;;
69172;SDS011;56280;49.662;8.408;2023-07-13T00:18:30;5.72;;;1.70;;
69172;SDS011;56280;49.662;8.408;2023-07-13T00:20:56;5.30;;;2.10;;
69172;SDS011;56280;49.662;8.408;2023-07-13T00:23:29;4.50;;;1.60;;
69172;SDS011;56280;49.662;8.408;2023-07-13T00:25:55;4.00;;;1.70;;
69172;SDS011;56280;49.662;8.408;2023-07-13T00:28:21;4.60;;;1.80;;
69172;SDS011;56280;49.662;8.408;2023-07-13T00:30:47;4.80;;;1.80;;
69172;SDS011;56280;49.662;8.408;2023-07-13T00:33:12;5.00;;;1.70;;
69172;SDS011;56280;49.662;8.408;2023-07-13T00:35:37;5.53;;;1.90;;
69172;SDS011;56280;49.662;8.408;2023-07-13T00:38:04;4.50;;;1.80;;
69172;SDS011;56280;49.662;8.408;2023-07-13T00:40:29;5.53;;;1.80;;
69172;SDS011;56280;49.662;8.408;2023-07-13T00:42:56;4.15;;;1.70;;
69172;SDS011;56280;49.662;8.408;2023-07-13T00:47:48;4.53;;;1.80;;
69172;SDS011;56280;49.662;8.408;2023-07-13T00:50:15;5.00;;;1.80;;
69172;SDS011;56280;49.662;8.408;2023-07-13T00:52:43;5.80;;;1.98;;
69172;SDS011;56280;49.662;8.408;2023-07-13T00:55:11;5.15;;;1.92;;
69172;SDS011;56280;49.662;8.408;2023-07-13T00:57:38;6.30;;;1.90;;
69172;SDS011;56280;49.662;8.408;2023-07-13T01:00:04;4.88;;;1.90;;
69172;SDS011;56280;49.662;8.408;2023-07-13T01:02:35;4.63;;;2.03;;
69172;SDS011;56280;49.662;8.408;2023-07-13T01:05:36;5.85;;;2.00;;
69172;SDS011;56280;49.662;8.408;2023-07-13T01:07:54;5.70;;;2.33;;
69172;SDS011;56280;49.662;8.408;2023-07-13T01:10:23;5.20;;;1.90;;
69172;SDS011;56280;49.662;8.408;2023-07-13T01:12:49;5.20;;;2.03;;
69172;SDS011;56280;49.662;8.408;2023-07-13T01:17:58;5.73;;;2.27;;
69172;SDS011;56280;49.662;8.408;2023-07-13T01:20:24;4.17;;;2.00;;
69172;SDS011;56280;49.662;8.408;2023-07-13T01:22:49;5.13;;;2.05;;
69172;SDS011;56280;49.662;8.408;2023-07-13T01:25:15;4.20;;;2.10;;
69172;SDS011;56280;49.662;8.408;2023-07-13T01:27:41;4.43;;;2.15;;
69172;SDS011;56280;49.662;8.408;2023-07-13T01:30:06;7.10;;;2.20;;
69172;SDS011;56280;49.662;8.408;2023-07-13T01:32:32;5.20;;;2.30;;
69172;SDS011;56280;49.662;8.408;2023-07-13T01:34:59;5.15;;;2.33;;
69172;SDS011;56280;49.662;8.408;2023-07-13T01:37:25;5.85;;;2.33;;
69172;SDS011;56280;49.662;8.408;2023-07-13T01:39:51;5.00;;;2.28;;
69172;SDS011;56280;49.662;8.408;2023-07-13T01:42:17;6.30;;;2.58;;
69172;SDS011;56280;49.662;8.408;2023-07-13T01:44:42;6.83;;;2.27;;
69172;SDS011;56280;49.662;8.408;2023-07-13T01:47:08;4.10;;;2.40;;
69172;SDS011;56280;49.662;8.408;2023-07-13T01:49:35;5.40;;;2.47;;
69172;SDS011;56280;49.662;8.408;2023-07-13T01:52:00;4.67;;;2.30;;
69172;SDS011;56280;49.662;8.408;2023-07-13T01:54:25;4.97;;;2.20;;
69172;SDS011;56280;49.662;8.408;2023-07-13T01:56:50;5.47;;;2.25;;
69172;SDS011;56280;49.662;8.408;2023-07-13T01:59:16;4.10;;;2.57;;
69172;SDS011;56280;49.662;8.408;2023-07-13T02:01:41;4.80;;;2.70;;
69172;SDS011;56280;49.662;8.408;2023-07-13T02:04:06;4.60;;;2.35;;
69172;SDS011;56280;49.662;8.408;2023-07-13T02:06:32;5.88;;;2.55;;
69172;SDS011;56280;49.662;8.408;2023-07-13T02:08:57;5.70;;;2.43;;
69172;SDS011;56280;49.662;8.408;2023-07-13T02:11:23;5.22;;;2.40;;
69172;SDS011;56280;49.662;8.408;2023-07-13T02:13:49;6.13;;;2.50;;
69172;SDS011;56280;49.662;8.408;2023-07-13T02:16:15;5.20;;;2.35;;
69172;SDS011;56280;49.662;8.408;2023-07-13T02:18:40;5.60;;;2.30;;
69172;SDS011;56280;49.662;8.408;2023-07-13T02:21:06;5.47;;;2.20;;
69172;SDS011;56280;49.662;8.408;2023-07-13T02:23:31;5.53;;;2.67;;
69172;SDS011;56280;49.662;8.408;2023-07-13T02:25:57;5.10;;;2.40;;
69172;SDS011;56280;49.662;8.408;2023-07-13T02:28:23;4.63;;;2.50;;
69172;SDS011;56280;49.662;8.408;2023-07-13T02:30:48;4.53;;;2.20;;
69172;SDS011;56280;49.662;8.408;2023-07-13T02:33:14;5.80;;;2.50;;
69172;SDS011;56280;49.662;8.408;2023-07-13T02:35:39;5.95;;;2.63;;
69172;SDS011;56280;49.662;8.408;2023-07-13T02:38:05;5.45;;;2.40;;
69172;SDS011;56280;49.662;8.408;2023-07-13T02:40:30;5.33;;;2.70;;
69172;SDS011;56280;49.662;8.408;2023-07-13T02:42:58;5.50;;;2.30;;
69172;SDS011;56280;49.662;8.408;2023-07-13T02:45:24;5.15;;;2.50;;
69172;SDS011;56280;49.662;8.408;2023-07-13T02:47:50;6.97;;;2.43;;
69172;SDS011;56280;49.662;8.408;2023-07-13T02:50:15;4.83;;;2.43;;
69172;SDS011;56280;49.662;8.408;2023-07-13T02:52:40;4.30;;;2.47;;
69172;SDS011;56280;49.662;8.408;2023-07-13T02:55:06;5.63;;;2.40;;
69172;SDS011;56280;49.662;8.408;2023-07-13T02:57:31;5.15;;;2.40;;
69172;SDS011;56280;49.662;8.408;2023-07-13T02:59:57;4.90;;;2.75;;
69172;SDS011;56280;49.662;8.408;2023-07-13T03:02:23;6.63;;;2.75;;
69172;SDS011;56280;49.662;8.408;2023-07-13T03:04:48;6.93;;;3.00;;
69172;SDS011;56280;49.662;8.408;2023-07-13T03:07:14;7.00;;;2.70;;
69172;SDS011;56280;49.662;8.408;2023-07-13T03:09:40;5.03;;;3.03;;
69172;SDS011;56280;49.662;8.408;2023-07-13T03:12:05;5.80;;;2.70;;
69172;SDS011;56280;49.662;8.408;2023-07-13T03:14:31;5.90;;;2.60;;
69172;SDS011;56280;49.662;8.408;2023-07-13T03:16:57;6.57;;;2.80;;
69172;SDS011;56280;49.662;8.408;2023-07-13T03:19:22;7.18;;;2.80;;
69172;SDS011;56280;49.662;8.408;2023-07-13T03:21:47;5.28;;;2.80;;
69172;SDS011;56280;49.662;8.408;2023-07-13T03:24:13;5.00;;;2.30;;
69172;SDS011;56280;49.662;8.408;2023-07-13T03:26:38;8.70;;;2.90;;
69172;SDS011;56280;49.662;8.408;2023-07-13T03:29:03;5.33;;;2.50;;
69172;SDS011;56280;49.662;8.408;2023-07-13T03:31:29;7.53;;;2.80;;
69172;SDS011;56280;49.662;8.408;2023-07-13T03:33:57;5.80;;;3.07;;
69172;SDS011;56280;49.662;8.408;2023-07-13T03:36:24;4.73;;;2.30;;
69172;SDS011;56280;49.662;8.408;2023-07-13T03:38:52;5.03;;;2.72;;
69172;SDS011;56280;49.662;8.408;2023-07-13T03:41:19;5.25;;;2.72;;
69172;SDS011;56280;49.662;8.408;2023-07-13T03:43:46;5.50;;;2.70;;
69172;SDS011;56280;49.662;8.408;2023-07-13T03:46:13;7.35;;;3.10;;
69172;SDS011;56280;49.662;8.408;2023-07-13T03:48:39;4.53;;;3.07;;
69172;SDS011;56280;49.662;8.408;2023-07-13T03:51:05;4.80;;;2.72;;
69172;SDS011;56280;49.662;8.408;2023-07-13T03:53:31;8.30;;;3.00;;
69172;SDS011;56280;49.662;8.408;2023-07-13T03:55:56;9.97;;;3.30;;
69172;SDS011;56280;49.662;8.408;2023-07-13T03:58:29;5.03;;;2.87;;
69172;SDS011;56280;49.662;8.408;2023-07-13T04:01:03;5.40;;;2.65;;
69172;SDS011;56280;49.662;8.408;2023-07-13T04:03:30;4.80;;;2.75;;
69172;SDS011;56280;49.662;8.408;2023-07-13T04:05:58;8.60;;;3.20;;
69172;SDS011;56280;49.662;8.408;2023-07-13T04:08:25;8.00;;;3.03;;
69172;SDS011;56280;49.662;8.408;2023-07-13T04:10:54;7.23;;;3.63;;
69172;SDS011;56280;49.662;8.408;2023-07-13T04:13:19;6.65;;;3.60;;
69172;SDS011;56280;49.662;8.408;2023-07-13T04:15:45;6.60;;;3.90;;
69172;SDS011;56280;49.662;8.408;2023-07-13T04:18:10;7.70;;;3.70;;
69172;SDS011;56280;49.662;8.408;2023-07-13T04:20:35;8.70;;;4.07;;
69172;SDS011;56280;49.662;8.408;2023-07-13T04:23:00;7.17;;;4.00;;
69172;SDS011;56280;49.662;8.408;2023-07-13T04:25:26;9.47;;;4.20;;
69172;SDS011;56280;49.662;8.408;2023-07-13T04:27:52;6.90;;;3.80;;
69172;SDS011;56280;49.662;8.408;2023-07-13T04:30:18;7.33;;;3.37;;
69172;SDS011;56280;49.662;8.408;2023-07-13T04:32:44;5.78;;;2.85;;
69172;SDS011;56280;49.662;8.408;2023-07-13T04:35:09;7.70;;;2.90;;
69172;SDS011;56280;49.662;8.408;2023-07-13T04:37:34;5.93;;;2.77;;
69172;SDS011;56280;49.662;8.408;2023-07-13T04:40:00;5.13;;;2.70;;
69172;SDS011;56280;49.662;8.408;2023-07-13T04:42:26;5.72;;;2.80;;
69172;SDS011;56280;49.662;8.408;2023-07-13T04:44:51;5.67;;;2.80;;
69172;SDS011;56280;49.662;8.408;2023-07-13T04:47:17;6.00;;;3.03;;
69172;SDS011;56280;49.662;8.408;2023-07-13T04:49:43;5.47;;;2.80;;
69172;SDS011;56280;49.662;8.408;2023-07-13T04:52:09;6.27;;;2.70;;
69172;SDS011;56280;49.662;8.408;2023-07-13T04:54:34;6.07;;;2.77;;
69172;SDS011;56280;49.662;8.408;2023-07-13T04:56:59;5.83;;;2.50;;
69172;SDS011;56280;49.662;8.408;2023-07-13T04:59:25;6.05;;;2.60;;
69172;SDS011;56280;49.662;8.408;2023-07-13T05:01:50;5.88;;;2.53;;
69172;SDS011;56280;49.662;8.408;2023-07-13T05:04:16;5.18;;;2.30;;
69172;SDS011;56280;49.662;8.408;2023-07-13T05:06:41;10.93;;;2.70;;
69172;SDS011;56280;49.662;8.408;2023-07-13T05:09:06;7.97;;;2.50;;
69172;SDS011;56280;49.662;8.408;2023-07-13T05:11:32;8.33;;;2.33;;
69172;SDS011;56280;49.662;8.408;2023-07-13T05:13:57;8.43;;;2.23;;
69172;SDS011;56280;49.662;8.408;2023-07-13T05:16:23;8.60;;;2.30;;
69172;SDS011;56280;49.662;8.408;2023-07-13T05:18:48;7.30;;;2.40;;
69172;SDS011;56280;49.662;8.408;2023-07-13T05:21:13;7.30;;;2.23;;
69172;SDS011;56280;49.662;8.408;2023-07-13T05:23:39;6.40;;;1.97;;
69172;SDS011;56280;49.662;8.408;2023-07-13T05:26:06;5.45;;;1.75;;
69172;SDS011;56280;49.662;8.408;2023-07-13T05:28:32;5.72;;;1.98;;
69172;SDS011;56280;49.662;8.408;2023-07-13T05:30:58;6.67;;;2.20;;
69172;SDS011;56280;49.662;8.408;2023-07-13T05:33:23;7.45;;;2.10;;
69172;SDS011;56280;49.662;8.408;2023-07-13T05:35:50;5.00;;;1.58;;
69172;SDS011;56280;49.662;8.408;2023-07-13T05:38:15;7.33;;;2.07;;
69172;SDS011;56280;49.662;8.408;2023-07-13T05:40:44;4.90;;;1.87;;
69172;SDS011;56280;49.662;8.408;2023-07-13T05:43:11;7.85;;;2.20;;
69172;SDS011;56280;49.662;8.408;2023-07-13T05:45:37;7.18;;;2.10;;
69172;SDS011;56280;49.662;8.408;2023-07-13T05:48:02;6.90;;;2.30;;
69172;SDS011;56280;49.662;8.408;2023-07-13T05:50:28;4.73;;;2.00;;
69172;SDS011;56280;49.662;8.408;2023-07-13T05:52:53;7.83;;;2.13;;
69172;SDS011;56280;49.662;8.408;2023-07-13T05:55:19;9.47;;;2.30;;
69172;SDS011;56280;49.662;8.408;2023-07-13T05:57:45;7.95;;;2.17;;
69172;SDS011;56280;49.662;8.408;2023-07-13T06:00:10;6.60;;;2.20;;
69172;SDS011;56280;49.662;8.408;2023-07-13T06:02:36;7.63;;;2.40;;
69172;SDS011;56280;49.662;8.408;2023-07-13T06:05:01;6.53;;;2.10;;
69172;SDS011;56280;49.662;8.408;2023-07-13T06:07:27;6.70;;;1.90;;
69172;SDS011;56280;49.662;8.408;2023-07-13T06:09:52;7.73;;;2.00;;
69172;SDS011;56280;49.662;8.408;2023-07-13T06:12:18;6.83;;;1.90;;
69172;SDS011;56280;49.662;8.408;2023-07-13T06:14:43;6.80;;;1.90;;
69172;SDS011;56280;49.662;8.408;2023-07-13T06:17:08;6.83;;;1.80;;
69172;SDS011;56280;49.662;8.408;2023-07-13T06:19:34;5.67;;;1.80;;
69172;SDS011;56280;49.662;8.408;2023-07-13T06:21:59;5.90;;;1.50;;
69172;SDS011;56280;49.662;8.408;2023-07-13T06:24:25;6.90;;;1.70;;
69172;SDS011;56280;49.662;8.408;2023-07-13T06:26:50;5.23;;;1.60;;
69172;SDS011;56280;49.662;8.408;2023-07-13T06:29:16;5.30;;;1.30;;
69172;SDS011;56280;49.662;8.408;2023-07-13T06:31:41;4.13;;;1.33;;
69172;SDS011;56280;49.662;8.408;2023-07-13T06:34:07;5.17;;;1.30;;
69172;SDS011;56280;49.662;8.408;2023-07-13T06:36:33;5.07;;;1.40;;
69172;SDS011;56280;49.662;8.408;2023-07-13T06:38:58;4.70;;;1.30;;
69172;SDS011;56280;49.662;8.408;2023-07-13T06:41:23;4.80;;;1.20;;
69172;SDS011;56280;49.662;8.408;2023-07-13T06:43:51;3.70;;;1.10;;
69172;SDS011;56280;49.662;8.408;2023-07-13T06:46:16;4.15;;;1.13;;
69172;SDS011;56280;49.662;8.408;2023-07-13T06:48:42;5.83;;;1.33;;
69172;SDS011;56280;49.662;8.408;2023-07-13T06:51:07;5.37;;;1.43;;
69172;SDS011;56280;49.662;8.408;2023-07-13T06:53:33;4.57;;;1.30;;
69172;SDS011;56280;49.662;8.408;2023-07-13T06:55:58;4.78;;;1.25;;
69172;SDS011;56280;49.662;8.408;2023-07-13T06:58:24;3.67;;;1.00;;
69172;SDS011;56280;49.662;8.408;2023-07-13T07:00:52;3.97;;;1.03;;
69172;SDS011;56280;49.662;8.408;2023-07-13T07:03:17;5.30;;;1.30;;
69172;SDS011;56280;49.662;8.408;2023-07-13T07:05:43;8.40;;;1.47;;
69172;SDS011;56280;49.662;8.408;2023-07-13T07:08:08;3.23;;;1.07;;
69172;SDS011;56280;49.662;8.408;2023-07-13T07:10:34;4.00;;;1.10;;
69172;SDS011;56280;49.662;8.408;2023-07-13T07:13:00;4.00;;;1.20;;
69172;SDS011;56280;49.662;8.408;2023-07-13T07:15:25;4.50;;;1.20;;
69172;SDS011;56280;49.662;8.408;2023-07-13T07:17:51;4.27;;;1.10;;
69172;SDS011;56280;49.662;8.408;2023-07-13T07:20:16;5.30;;;1.20;;
69172;SDS011;56280;49.662;8.408;2023-07-13T07:22:41;5.63;;;1.20;;
69172;SDS011;56280;49.662;8.408;2023-07-13T07:25:07;4.23;;;1.10;;
69172;SDS011;56280;49.662;8.408;2023-07-13T07:27:32;4.95;;;1.30;;
69172;SDS011;56280;49.662;8.408;2023-07-13T07:29:58;5.07;;;1.30;;
69172;SDS011;56280;49.662;8.408;2023-07-13T07:32:24;4.95;;;1.30;;
69172;SDS011;56280;49.662;8.408;2023-07-13T07:34:49;4.97;;;1.20;;
69172;SDS011;56280;49.662;8.408;2023-07-13T07:37:15;3.83;;;1.20;;
69172;SDS011;56280;49.662;8.408;2023-07-13T07:39:42;3.92;;;1.27;;
69172;SDS011;56280;49.662;8.408;2023-07-13T07:42:08;4.70;;;1.23;;
69172;SDS011;56280;49.662;8.408;2023-07-13T07:44:33;3.77;;;1.10;;
69172;SDS011;56280;49.662;8.408;2023-07-13T07:46:59;5.82;;;1.20;;
69172;SDS011;56280;49.662;8.408;2023-07-13T07:49:24;3.80;;;1.10;;
69172;SDS011;56280;49.662;8.408;2023-07-13T07:51:50;4.73;;;1.10;;
69172;SDS011;56280;49.662;8.408;2023-07-13T07:54:16;5.50;;;1.30;;
69172;SDS011;56280;49.662;8.408;2023-07-13T07:56:41;3.30;;;1.13;;
69172;SDS011;56280;49.662;8.408;2023-07-13T07:59:07;5.60;;;1.35;;
69172;SDS011;56280;49.662;8.408;2023-07-13T08:01:32;5.60;;;1.20;;
69172;SDS011;56280;49.662;8.408;2023-07-13T08:03:58;5.87;;;1.20;;
69172;SDS011;56280;49.662;8.408;2023-07-13T08:06:23;4.43;;;1.00;;
69172;SDS011;56280;49.662;8.408;2023-07-13T08:08:49;5.47;;;1.53;;
69172;SDS011;56280;49.662;8.408;2023-07-13T08:11:17;5.80;;;1.20;;
69172;SDS011;56280;49.662;8.408;2023-07-13T08:13:42;4.50;;;1.30;;
69172;SDS011;56280;49.662;8.408;2023-07-13T08:16:07;4.77;;;1.40;;
69172;SDS011;56280;49.662;8.408;2023-07-13T08:18:33;5.03;;;1.40;;
69172;SDS011;56280;49.662;8.408;2023-07-13T08:21:02;5.50;;;1.50;;
69172;SDS011;56280;49.662;8.408;2023-07-13T08:23:31;5.15;;;1.50;;
69172;SDS011;56280;49.662;8.408;2023-07-13T08:25:57;5.17;;;1.27;;
69172;SDS011;56280;49.662;8.408;2023-07-13T08:28:23;8.10;;;2.30;;
69172;SDS011;56280;49.662;8.408;2023-07-13T08:30:48;6.90;;;1.33;;
69172;SDS011;56280;49.662;8.408;2023-07-13T08:33:17;8.00;;;2.25;;
69172;SDS011;56280;49.662;8.408;2023-07-13T08:35:47;26.48;;;6.95;;
69172;SDS011;56280;49.662;8.408;2023-07-13T08:38:13;12.73;;;3.92;;
69172;SDS011;56280;49.662;8.408;2023-07-13T08:40:39;4.75;;;1.40;;
69172;SDS011;56280;49.662;8.408;2023-07-13T08:43:07;12.18;;;3.30;;
69172;SDS011;56280;49.662;8.408;2023-07-13T08:48:26;9.87;;;3.40;;
69172;SDS011;56280;49.662;8.408;2023-07-13T08:53:31;4.05;;;1.17;;
69172;SDS011;56280;49.662;8.408;2023-07-13T08:56:09;5.05;;;1.27;;
69172;SDS011;56280;49.662;8.408;2023-07-13T08:58:44;4.25;;;1.20;;
69172;SDS011;56280;49.662;8.408;2023-07-13T09:01:15;4.35;;;1.50;;
69172;SDS011;56280;49.662;8.408;2023-07-13T09:03:48;4.72;;;1.50;;
69172;SDS011;56280;49.662;8.408;2023-07-13T09:06:39;4.03;;;1.20;;
69172;SDS011;56280;49.662;8.408;2023-07-13T09:09:10;7.80;;;2.23;;
69172;SDS011;56280;49.662;8.408;2023-07-13T09:11:55;15.33;;;4.30;;
69172;SDS011;56280;49.662;8.408;2023-07-13T09:17:45;6.43;;;1.30;;
69172;SDS011;56280;49.662;8.408;2023-07-13T09:20:22;5.55;;;1.40;;
69172;SDS011;56280;49.662;8.408;2023-07-13T09:22:52;5.63;;;1.60;;
69172;SDS011;56280;49.662;8.408;2023-07-13T09:25:29;4.15;;;1.30;;
69172;SDS011;56280;49.662;8.408;2023-07-13T09:28:00;4.78;;;1.40;;
69172;SDS011;56280;49.662;8.408;2023-07-13T09:31:18;4.97;;;1.40;;
69172;SDS011;56280;49.662;8.408;2023-07-13T09:33:41;4.93;;;1.30;;
69172;SDS011;56280;49.662;8.408;2023-07-13T09:38:59;4.97;;;1.27;;
69172;SDS011;56280;49.662;8.408;2023-07-13T09:44:42;6.60;;;1.30;;
69172;SDS011;56280;49.662;8.408;2023-07-13T09:47:26;4.00;;;1.10;;
69172;SDS011;56280;49.662;8.408;2023-07-13T09:49:55;6.63;;;1.35;;
69172;SDS011;56280;49.662;8.408;2023-07-13T09:52:24;4.40;;;1.17;;
69172;SDS011;56280;49.662;8.408;2023-07-13T09:54:52;3.67;;;1.33;;
69172;SDS011;56280;49.662;8.408;2023-07-13T09:57:24;4.67;;;1.23;;
69172;SDS011;56280;49.662;8.408;2023-07-13T09:59:52;4.70;;;1.25;;
69172;SDS011;56280;49.662;8.408;2023-07-13T10:02:35;3.40;;;1.30;;
69172;SDS011;56280;49.662;8.408;2023-07-13T10:05:10;4.18;;;1.52;;
69172;SDS011;56280;49.662;8.408;2023-07-13T10:07:39;3.85;;;1.40;;
69172;SDS011;56280;49.662;8.408;2023-07-13T10:10:19;3.60;;;1.40;;
69172;SDS011;56280;49.662;8.408;2023-07-13T10:12:47;3.30;;;1.40;;
69172;SDS011;56280;49.662;8.408;2023-07-13T10:15:15;5.70;;;1.40;;
69172;SDS011;56280;49.662;8.408;2023-07-13T10:17:43;4.13;;;1.30;;
69172;SDS011;56280;49.662;8.408;2023-07-13T10:20:09;3.38;;;1.30;;
69172;SDS011;56280;49.662;8.408;2023-07-13T10:25:26;3.88;;;1.40;;
69172;SDS011;56280;49.662;8.408;2023-07-13T10:27:58;4.75;;;1.40;;
69172;SDS011;56280;49.662;8.408;2023-07-13T10:30:31;5.20;;;1.30;;
69172;SDS011;56280;49.662;8.408;2023-07-13T10:33:04;3.97;;;1.40;;
69172;SDS011;56280;49.662;8.408;2023-07-13T10:35:36;5.78;;;1.45;;
69172;SDS011;56280;49.662;8.408;2023-07-13T10:38:04;4.13;;;1.30;;
69172;SDS011;56280;49.662;8.408;2023-07-13T10:40:39;4.73;;;1.50;;
69172;SDS011;56280;49.662;8.408;2023-07-13T10:43:16;3.78;;;1.40;;
69172;SDS011;56280;49.662;8.408;2023-07-13T10:45:45;3.70;;;1.40;;
69172;SDS011;56280;49.662;8.408;2023-07-13T10:48:15;4.18;;;1.38;;
69172;SDS011;56280;49.662;8.408;2023-07-13T10:50:41;4.82;;;1.40;;
69172;SDS011;56280;49.662;8.408;2023-07-13T10:53:20;4.25;;;1.35;;
69172;SDS011;56280;49.662;8.408;2023-07-13T10:55:56;4.40;;;1.30;;
69172;SDS011;56280;49.662;8.408;2023-07-13T11:01:04;3.95;;;1.50;;
69172;SDS011;56280;49.662;8.408;2023-07-13T11:11:49;3.72;;;1.45;;
69172;SDS011;56280;49.662;8.408;2023-07-13T11:14:28;4.57;;;1.50;;
69172;SDS011;56280;49.662;8.408;2023-07-13T11:17:00;5.72;;;1.85;;
69172;SDS011;56280;49.662;8.408;2023-07-13T11:23:26;3.60;;;1.40;;
69172;SDS011;56280;49.662;8.408;2023-07-13T11:25:38;4.47;;;1.30;;
69172;SDS011;56280;49.662;8.408;2023-07-13T11:28:05;5.22;;;1.40;;
69172;SDS011;56280;49.662;8.408;2023-07-13T11:30:48;6.38;;;2.13;;
69172;SDS011;56280;49.662;8.408;2023-07-13T11:36:04;4.50;;;1.38;;
69172;SDS011;56280;49.662;8.408;2023-07-13T11:41:05;4.68;;;1.50;;
69172;SDS011;56280;49.662;8.408;2023-07-13T11:43:42;4.00;;;1.27;;
69172;SDS011;56280;49.662;8.408;2023-07-13T11:46:14;4.75;;;1.35;;
69172;SDS011;56280;49.662;8.408;2023-07-13T11:49:20;4.22;;;1.30;;
69172;SDS011;56280;49.662;8.408;2023-07-13T11:51:51;4.82;;;1.30;;
69172;SDS011;56280;49.662;8.408;2023-07-13T11:54:22;3.90;;;1.20;;
69172;SDS011;56280;49.662;8.408;2023-07-13T11:56:55;4.28;;;1.20;;
69172;SDS011;56280;49.662;8.408;2023-07-13T11:59:25;5.47;;;1.20;;
69172;SDS011;56280;49.662;8.408;2023-07-13T12:01:51;3.60;;;1.03;;
69172;SDS011;56280;49.662;8.408;2023-07-13T12:04:23;4.68;;;1.20;;
69172;SDS011;56280;49.662;8.408;2023-07-13T12:07:06;4.88;;;1.30;;
69172;SDS011;56280;49.662;8.408;2023-07-13T12:09:39;4.10;;;1.10;;
69172;SDS011;56280;49.662;8.408;2023-07-13T12:12:08;4.43;;;1.10;;
69172;SDS011;56280;49.662;8.408;2023-07-13T12:14:36;4.20;;;1.13;;
69172;SDS011;56280;49.662;8.408;2023-07-13T12:17:04;4.30;;;1.30;;
69172;SDS011;56280;49.662;8.408;2023-07-13T12:19:36;4.13;;;1.25;;
69172;SDS011;56280;49.662;8.408;2023-07-13T12:22:02;4.63;;;1.30;;
69172;SDS011;56280;49.662;8.408;2023-07-13T12:24:27;5.63;;;1.40;;
69172;SDS011;56280;49.662;8.408;2023-07-13T12:27:03;5.50;;;1.50;;
69172;SDS011;56280;49.662;8.408;2023-07-13T12:29:31;5.63;;;1.30;;
69172;SDS011;56280;49.662;8.408;2023-07-13T12:31:57;3.60;;;1.20;;
69172;SDS011;56280;49.662;8.408;2023-07-13T12:34:24;5.93;;;1.23;;
69172;SDS011;56280;49.662;8.408;2023-07-13T12:41:46;5.33;;;1.37;;
69172;SDS011;56280;49.662;8.408;2023-07-13T12:44:16;5.10;;;1.30;;
69172;SDS011;56280;49.662;8.408;2023-07-13T12:47:03;5.45;;;1.50;;
69172;SDS011;56280;49.662;8.408;2023-07-13T12:49:39;4.10;;;1.30;;
69172;SDS011;56280;49.662;8.408;2023-07-13T12:52:28;5.90;;;1.55;;
69172;SDS011;56280;49.662;8.408;2023-07-13T12:54:56;3.53;;;1.30;;
69172;SDS011;56280;49.662;8.408;2023-07-13T12:57:24;4.53;;;1.58;;
69172;SDS011;56280;49.662;8.408;2023-07-13T12:59:54;5.15;;;1.50;;
69172;SDS011;56280;49.662;8.408;2023-07-13T13:02:30;6.60;;;1.43;;
69172;SDS011;56280;49.662;8.408;2023-07-13T13:04:59;3.80;;;1.23;;
69172;SDS011;56280;49.662;8.408;2023-07-13T13:07:25;6.50;;;1.47;;
69172;SDS011;56280;49.662;8.408;2023-07-13T13:09:51;4.22;;;1.40;;
69172;SDS011;56280;49.662;8.408;2023-07-13T13:12:18;3.75;;;1.30;;
69172;SDS011;56280;49.662;8.408;2023-07-13T13:14:43;4.70;;;1.23;;
69172;SDS011;56280;49.662;8.408;2023-07-13T13:17:23;4.83;;;1.17;;
69172;SDS011;56280;49.662;8.408;2023-07-13T13:19:53;5.38;;;1.40;;
69172;SDS011;56280;49.662;8.408;2023-07-13T13:22:19;6.03;;;1.30;;
69172;SDS011;56280;49.662;8.408;2023-07-13T13:24:45;5.23;;;1.40;;
69172;SDS011;56280;49.662;8.408;2023-07-13T13:27:16;5.13;;;1.43;;
69172;SDS011;56280;49.662;8.408;2023-07-13T13:29:44;6.53;;;1.25;;
69172;SDS011;56280;49.662;8.408;2023-07-13T13:32:13;7.20;;;1.40;;
69172;SDS011;56280;49.662;8.408;2023-07-13T13:34:40;6.32;;;1.33;;
69172;SDS011;56280;49.662;8.408;2023-07-13T13:37:23;4.60;;;1.20;;
69172;SDS011;56280;49.662;8.408;2023-07-13T13:39:51;5.43;;;1.23;;
69172;SDS011;56280;49.662;8.408;2023-07-13T13:42:18;5.17;;;1.30;;
69172;SDS011;56280;49.662;8.408;2023-07-13T13:44:46;4.65;;;1.33;;
69172;SDS011;56280;49.662;8.408;2023-07-13T13:49:57;4.28;;;1.30;;
69172;SDS011;56280;49.662;8.408;2023-07-13T13:52:23;5.80;;;1.40;;
69172;SDS011;56280;49.662;8.408;2023-07-13T13:54:50;3.90;;;1.42;;
69172;SDS011;56280;49.662;8.408;2023-07-13T13:57:20;4.33;;;1.30;;
69172;SDS011;56280;49.662;8.408;2023-07-13T13:59:47;3.20;;;1.27;;
69172;SDS011;56280;49.662;8.408;2023-07-13T14:02:26;5.75;;;1.38;;
69172;SDS011;56280;49.662;8.408;2023-07-13T14:04:58;4.00;;;1.20;;
69172;SDS011;56280;49.662;8.408;2023-07-13T14:07:25;3.85;;;1.30;;
69172;SDS011;56280;49.662;8.408;2023-07-13T14:09:51;6.10;;;1.60;;
69172;SDS011;56280;49.662;8.408;2023-07-13T14:12:18;6.20;;;1.40;;
69172;SDS011;56280;49.662;8.408;2023-07-13T14:14:45;4.75;;;1.27;;
69172;SDS011;56280;49.662;8.408;2023-07-13T14:17:15;5.95;;;1.30;;
69172;SDS011;56280;49.662;8.408;2023-07-13T14:19:46;3.83;;;1.20;;
69172;SDS011;56280;49.662;8.408;2023-07-13T14:22:15;4.03;;;1.20;;
69172;SDS011;56280;49.662;8.408;2023-07-13T14:24:41;5.10;;;1.35;;
69172;SDS011;56280;49.662;8.408;2023-07-13T14:27:07;4.77;;;1.20;;
69172;SDS011;56280;49.662;8.408;2023-07-13T14:29:34;5.03;;;1.40;;
69172;SDS011;56280;49.662;8.408;2023-07-13T14:31:59;5.40;;;1.20;;
69172;SDS011;56280;49.662;8.408;2023-07-13T14:34:24;5.30;;;1.20;;
69172;SDS011;56280;49.662;8.408;2023-07-13T14:36:50;4.40;;;1.30;;
69172;SDS011;56280;49.662;8.408;2023-07-13T14:39:17;3.95;;;1.30;;
69172;SDS011;56280;49.662;8.408;2023-07-13T14:41:44;5.57;;;1.60;;
69172;SDS011;56280;49.662;8.408;2023-07-13T14:44:13;4.90;;;1.17;;
69172;SDS011;56280;49.662;8.408;2023-07-13T14:46:40;5.40;;;1.35;;
69172;SDS011;56280;49.662;8.408;2023-07-13T14:49:16;6.57;;;1.30;;
69172;SDS011;56280;49.662;8.408;2023-07-13T14:51:43;5.00;;;1.30;;
69172;SDS011;56280;49.662;8.408;2023-07-13T14:54:09;5.30;;;1.30;;
69172;SDS011;56280;49.662;8.408;2023-07-13T14:56:34;4.97;;;1.30;;
69172;SDS011;56280;49.662;8.408;2023-07-13T14:59:00;5.80;;;1.30;;
69172;SDS011;56280;49.662;8.408;2023-07-13T15:01:25;5.40;;;1.23;;
69172;SDS011;56280;49.662;8.408;2023-07-13T15:03:52;4.80;;;1.40;;
69172;SDS011;56280;49.662;8.408;2023-07-13T15:06:18;3.30;;;1.20;;
69172;SDS011;56280;49.662;8.408;2023-07-13T15:08:44;4.55;;;1.33;;
69172;SDS011;56280;49.662;8.408;2023-07-13T15:11:10;6.15;;;1.30;;
69172;SDS011;56280;49.662;8.408;2023-07-13T15:13:39;5.47;;;1.20;;
69172;SDS011;56280;49.662;8.408;2023-07-13T15:16:10;3.50;;;1.20;;
69172;SDS011;56280;49.662;8.408;2023-07-13T15:18:42;3.72;;;1.20;;
69172;SDS011;56280;49.662;8.408;2023-07-13T15:21:08;4.78;;;1.20;;
69172;SDS011;56280;49.662;8.408;2023-07-13T15:23:38;5.10;;;1.40;;
69172;SDS011;56280;49.662;8.408;2023-07-13T15:26:04;4.72;;;1.25;;
69172;SDS011;56280;49.662;8.408;2023-07-13T15:28:29;5.95;;;1.20;;
69172;SDS011;56280;49.662;8.408;2023-07-13T15:30:54;4.40;;;1.10;;
69172;SDS011;56280;49.662;8.408;2023-07-13T15:33:24;4.03;;;1.20;;
69172;SDS011;56280;49.662;8.408;2023-07-13T15:35:52;4.63;;;1.10;;
69172;SDS011;56280;49.662;8.408;2023-07-13T15:38:23;4.47;;;1.35;;
69172;SDS011;56280;49.662;8.408;2023-07-13T15:40:50;4.25;;;1.10;;
69172;SDS011;56280;49.662;8.408;2023-07-13T15:43:17;4.43;;;1.20;;